Time,TemperatureF,DewpointF,PressureIn,WindDirection,WindDirectionDegrees,WindSpeedMPH,WindSpeedGustMPH,Humidity,HourlyPrecipIn,Conditions,Clouds,dailyrainin,SoftwareType,DateUTC
2013-03-06 00:00:00,41.4,17.7,30.35,NNW,339,0.0,0.0,38,0.00,,SKC,0.00,VWS V14.01,2013-03-06 06:00:00,
2013-03-06 00:05:00,41.1,17.4,30.35,NNW,339,0.0,0.0,38,0.00,,SKC,0.00,VWS V14.01,2013-03-06 06:05:00,
2013-03-06 00:10:00,40.9,17.9,30.35,NNW,339,0.0,0.0,39,0.00,,SKC,0.00,VWS V14.01,2013-03-06 06:10:00,
2013-03-06 00:15:00,40.7,18.3,30.35,NNW,339,0.0,0.0,40,0.00,,SKC,0.00,VWS V14.01,2013-03-06 06:15:00,
2013-03-06 00:20:00,40.6,18.2,30.35,NNW,339,0.0,0.0,40,0.00,,SKC,0.00,VWS V14.01,2013-03-06 06:20:00,
2013-03-06 00:25:00,40.4,18.0,30.35,NNW,339,0.0,0.0,40,0.00,,SKC,0.00,VWS V14.01,2013-03-06 06:25:00,
2013-03-06 00:30:00,40.2,17.8,30.35,NNW,339,0.0,0.0,40,0.00,,SKC,0.00,VWS V14.01,2013-03-06 06:30:00,
2013-03-06 00:35:00,40.0,18.2,30.35,NNW,339,0.0,0.0,41,0.00,,SKC,0.00,VWS V14.01,2013-03-06 06:35:00,
2013-03-06 00:40:00,39.8,18.0,30.35,NNW,339,0.0,0.0,41,0.00,,SKC,0.00,VWS V14.01,2013-03-06 06:40:00,
2013-03-06 00:45:00,39.6,18.4,30.35,NNW,339,0.0,0.0,42,0.00,,SKC,0.00,VWS V14.01,2013-03-06 06:45:00,
2013-03-06 00:50:00,39.4,18.2,30.35,NNW,339,0.0,0.0,42,0.00,,SKC,0.00,VWS V14.01,2013-03-06 06:50:00,
2013-03-06 00:55:00,39.3,18.1,30.35,NNW,339,0.0,0.0,42,0.00,,SKC,0.00,VWS V14.01,2013-03-06 06:55:00,
2013-03-06 01:00:00,39.1,18.0,30.35,NNW,339,0.0,0.0,42,0.00,,SKC,0.00,VWS V14.01,2013-03-06 07:00:00,
2013-03-06 01:05:00,39.0,18.4,30.35,NNW,339,0.0,0.0,43,0.00,,SKC,0.00,VWS V14.01,2013-03-06 07:05:00,
2013-03-06 01:10:00,39.0,18.4,30.35,NNW,339,0.0,0.0,43,0.00,,SKC,0.00,VWS V14.01,2013-03-06 07:10:00,
2013-03-06 01:15:00,39.0,18.4,30.34,NNW,339,0.0,0.0,43,0.00,,SKC,0.00,VWS V14.01,2013-03-06 07:15:00,
2013-03-06 01:20:00,38.9,18.3,30.34,NNW,339,0.0,0.0,43,0.00,,SKC,0.00,VWS V14.01,2013-03-06 07:20:00,
2013-03-06 01:25:00,38.8,18.2,30.35,NNW,339,0.0,0.0,43,0.00,,SKC,0.00,VWS V14.01,2013-03-06 07:25:00,
2013-03-06 01:30:00,38.8,18.2,30.34,NNW,339,0.0,0.0,43,0.00,,SKC,0.00,VWS V14.01,2013-03-06 07:30:00,
2013-03-06 01:35:00,38.8,18.2,30.35,NNW,339,0.0,0.0,43,0.00,,SKC,0.00,VWS V14.01,2013-03-06 07:35:00,
2013-03-06 01:40:00,38.8,18.2,30.35,NNW,339,0.0,0.0,43,0.00,,SKC,0.00,VWS V14.01,2013-03-06 07:40:00,
2013-03-06 01:45:00,38.8,18.2,30.34,NNW,339,0.0,0.0,43,0.00,,SKC,0.00,VWS V14.01,2013-03-06 07:45:00,
2013-03-06 01:50:00,38.8,18.2,30.34,NNW,339,0.0,0.0,43,0.00,,SKC,0.00,VWS V14.01,2013-03-06 07:50:00,
2013-03-06 01:55:00,38.8,18.2,30.34,NNW,339,0.0,0.0,43,0.00,,SKC,0.00,VWS V14.01,2013-03-06 07:55:00,
2013-03-06 02:00:00,38.8,18.2,30.34,NNW,339,0.0,0.0,43,0.00,,SKC,0.00,VWS V14.01,2013-03-06 08:00:00,
2013-03-06 02:05:00,38.8,18.2,30.34,NNW,339,0.0,0.0,43,0.00,,SKC,0.00,VWS V14.01,2013-03-06 08:05:00,
2013-03-06 02:10:00,38.8,18.2,30.35,NNW,339,0.0,0.0,43,0.00,,SKC,0.00,VWS V14.01,2013-03-06 08:10:00,
2013-03-06 02:15:00,38.7,18.1,30.35,NNW,339,0.0,0.0,43,0.00,,SKC,0.00,VWS V14.01,2013-03-06 08:15:00,
2013-03-06 02:20:00,38.4,17.9,30.34,NNW,339,0.0,0.0,43,0.00,,SKC,0.00,VWS V14.01,2013-03-06 08:20:00,
2013-03-06 02:25:00,38.2,18.2,30.34,NNW,339,0.0,0.0,44,0.00,,SKC,0.00,VWS V14.01,2013-03-06 08:25:00,
2013-03-06 02:30:00,37.9,18.0,30.34,NNW,339,0.0,0.0,44,0.00,,SKC,0.00,VWS V14.01,2013-03-06 08:30:00,
2013-03-06 02:35:00,37.8,17.9,30.34,NNW,339,0.0,0.0,44,0.00,,SKC,0.00,VWS V14.01,2013-03-06 08:35:00,
2013-03-06 02:40:00,37.7,18.3,30.34,NNW,339,0.0,0.0,45,0.00,,SKC,0.00,VWS V14.01,2013-03-06 08:40:00,
2013-03-06 02:45:00,37.7,18.3,30.34,NNW,339,0.0,0.0,45,0.00,,SKC,0.00,VWS V14.01,2013-03-06 08:45:00,
2013-03-06 02:50:00,37.6,18.2,30.34,NNW,339,0.0,0.0,45,0.00,,SKC,0.00,VWS V14.01,2013-03-06 08:50:00,
2013-03-06 02:55:00,37.6,18.2,30.33,NNW,339,0.0,0.0,45,0.00,,SKC,0.00,VWS V14.01,2013-03-06 08:55:00,
2013-03-06 03:00:00,37.6,18.2,30.33,NNW,339,0.0,0.0,45,0.00,,SKC,0.00,VWS V14.01,2013-03-06 09:00:00,
2013-03-06 03:05:00,37.8,18.4,30.33,NNW,339,0.0,2.0,45,0.00,,SKC,0.00,VWS V14.01,2013-03-06 09:05:00,
2013-03-06 03:10:00,38.3,18.8,30.33,NNW,339,2.0,4.0,45,0.00,,SKC,0.00,VWS V14.01,2013-03-06 09:10:00,
2013-03-06 03:15:00,38.9,18.9,30.33,North,350,0.0,8.0,44,0.00,,SKC,0.00,VWS V14.01,2013-03-06 09:15:00,
2013-03-06 03:20:00,39.4,18.8,30.33,North,350,0.0,4.0,43,0.00,,SKC,0.00,VWS V14.01,2013-03-06 09:20:00,
2013-03-06 03:25:00,39.7,19.0,30.33,North,351,0.0,7.0,43,0.00,,SKC,0.00,VWS V14.01,2013-03-06 09:25:00,
2013-03-06 03:30:00,39.9,19.2,30.33,North,351,0.0,5.0,43,0.00,,SKC,0.00,VWS V14.01,2013-03-06 09:30:00,
2013-03-06 03:35:00,40.0,18.8,30.33,North,351,0.0,5.0,42,0.00,,SKC,0.00,VWS V14.01,2013-03-06 09:35:00,
2013-03-06 03:40:00,40.1,18.9,30.33,North,355,2.0,6.0,42,0.00,,SKC,0.00,VWS V14.01,2013-03-06 09:40:00,
2013-03-06 03:45:00,40.2,19.0,30.33,North,355,0.0,6.0,42,0.00,,SKC,0.00,VWS V14.01,2013-03-06 09:45:00,
2013-03-06 03:50:00,40.3,19.0,30.33,North,355,0.0,0.0,42,0.00,,SKC,0.00,VWS V14.01,2013-03-06 09:50:00,
2013-03-06 03:55:00,40.4,19.1,30.33,North,355,0.0,0.0,42,0.00,,SKC,0.00,VWS V14.01,2013-03-06 09:55:00,
2013-03-06 04:00:00,40.4,19.1,30.33,North,355,0.0,0.0,42,0.00,,SKC,0.00,VWS V14.01,2013-03-06 10:00:00,
2013-03-06 04:05:00,40.3,19.0,30.33,North,355,0.0,1.0,42,0.00,,SKC,0.00,VWS V14.01,2013-03-06 10:05:00,
2013-03-06 04:10:00,40.2,19.0,30.33,North,355,0.0,0.0,42,0.00,,SKC,0.00,VWS V14.01,2013-03-06 10:10:00,
2013-03-06 04:15:00,40.0,18.8,30.33,North,355,0.0,0.0,42,0.00,,SKC,0.00,VWS V14.01,2013-03-06 10:15:00,
2013-03-06 04:20:00,39.9,18.7,30.33,North,355,0.0,0.0,42,0.00,,SKC,0.00,VWS V14.01,2013-03-06 10:20:00,
2013-03-06 04:25:00,39.8,18.6,30.34,North,355,0.0,0.0,42,0.00,,SKC,0.00,VWS V14.01,2013-03-06 10:25:00,
2013-03-06 04:30:00,39.7,19.0,30.33,North,355,0.0,0.0,43,0.00,,SKC,0.00,VWS V14.01,2013-03-06 10:30:00,
2013-03-06 04:35:00,39.6,19.0,30.33,North,355,0.0,0.0,43,0.00,,SKC,0.00,VWS V14.01,2013-03-06 10:35:00,
2013-03-06 04:40:00,39.5,18.9,30.34,North,355,0.0,0.0,43,0.00,,SKC,0.00,VWS V14.01,2013-03-06 10:40:00,
2013-03-06 04:45:00,39.5,18.9,30.34,North,355,0.0,3.0,43,0.00,,SKC,0.00,VWS V14.01,2013-03-06 10:45:00,
2013-03-06 04:49:00,39.5,18.9,30.34,North,355,0.0,2.0,43,0.00,,SKC,0.00,VWS V14.01,2013-03-06 10:49:00,
2013-03-06 04:50:00,37.9,18.5,30.38,North,355,0.0,0.0,45,0.00,,SKC,0.00,VWS V14.01,2013-03-06 10:50:00,
2013-03-06 04:55:00,39.6,19.0,30.35,North,355,0.0,3.0,43,0.00,,SKC,0.00,VWS V14.01,2013-03-06 10:55:00,
2013-03-06 04:59:00,39.7,19.0,30.35,North,355,0.0,0.0,43,0.00,,SKC,0.00,VWS V14.01,2013-03-06 10:59:00,
2013-03-06 05:00:00,36.5,18.2,30.38,North,355,0.0,0.0,47,0.00,,SKC,0.00,VWS V14.01,2013-03-06 11:00:00,
2013-03-06 05:04:00,39.7,19.0,30.35,North,355,0.0,1.0,43,0.00,,SKC,0.00,VWS V14.01,2013-03-06 11:04:00,
2013-03-06 05:09:00,39.7,19.0,30.36,North,355,0.0,0.0,43,0.00,,SKC,0.00,VWS V14.01,2013-03-06 11:09:00,
2013-03-06 05:10:00,35.5,18.2,30.39,North,355,0.0,0.0,49,0.00,,SKC,0.00,VWS V14.01,2013-03-06 11:10:00,
2013-03-06 05:14:00,39.6,19.0,30.36,North,355,0.0,0.0,43,0.00,,SKC,0.00,VWS V14.01,2013-03-06 11:14:00,
2013-03-06 05:19:00,39.5,18.9,30.37,North,355,0.0,0.0,43,0.00,,SKC,0.00,VWS V14.01,2013-03-06 11:19:00,
2013-03-06 05:20:00,34.6,18.3,30.38,North,355,0.0,0.0,51,0.00,,SKC,0.00,VWS V14.01,2013-03-06 11:20:00,
2013-03-06 05:24:00,39.4,18.8,30.37,North,355,0.0,0.0,43,0.00,,SKC,0.00,VWS V14.01,2013-03-06 11:24:00,
2013-03-06 05:29:00,39.2,19.1,30.37,North,355,0.0,0.0,44,0.00,,SKC,0.00,VWS V14.01,2013-03-06 11:29:00,
2013-03-06 05:30:00,34.8,19.0,30.38,North,355,0.0,0.0,52,0.00,,SKC,0.00,VWS V14.01,2013-03-06 11:30:00,
2013-03-06 05:34:00,39.0,19.0,30.37,North,355,0.0,0.0,44,0.00,,SKC,0.00,VWS V14.01,2013-03-06 11:34:00,
2013-03-06 05:39:00,38.6,19.1,30.37,North,355,0.0,0.0,45,0.00,,SKC,0.00,VWS V14.01,2013-03-06 11:39:00,
2013-03-06 05:40:00,35.6,19.3,30.39,North,355,0.0,0.0,51,0.00,,SKC,0.00,VWS V14.01,2013-03-06 11:40:00,
2013-03-06 05:44:00,38.2,18.8,30.38,North,355,0.0,0.0,45,0.00,,SKC,0.00,VWS V14.01,2013-03-06 11:44:00,
2013-03-06 05:49:00,37.5,18.6,30.38,North,355,0.0,0.0,46,0.00,,SKC,0.00,VWS V14.01,2013-03-06 11:49:00,
2013-03-06 05:50:00,36.5,19.2,30.39,North,355,0.0,0.0,49,0.00,,SKC,0.00,VWS V14.01,2013-03-06 11:50:00,
2013-03-06 05:54:00,36.8,18.5,30.38,North,355,0.0,0.0,47,0.00,,SKC,0.00,VWS V14.01,2013-03-06 11:54:00,
2013-03-06 05:59:00,36.2,18.4,30.38,North,355,0.0,0.0,48,0.00,,SKC,0.00,VWS V14.01,2013-03-06 11:59:00,
2013-03-06 06:00:00,37.0,19.6,30.39,North,355,0.0,0.0,49,0.00,,SKC,0.00,VWS V14.01,2013-03-06 12:00:00,
2013-03-06 06:04:00,35.7,18.4,30.38,North,355,0.0,0.0,49,0.00,,SKC,0.00,VWS V14.01,2013-03-06 12:04:00,
2013-03-06 06:09:00,35.1,18.8,30.38,North,355,0.0,0.0,51,0.00,,SKC,0.00,VWS V14.01,2013-03-06 12:09:00,
2013-03-06 06:10:00,37.6,20.2,30.39,North,355,0.0,3.0,49,0.00,,SKC,0.00,VWS V14.01,2013-03-06 12:10:00,
2013-03-06 06:14:00,34.7,18.4,30.38,North,355,0.0,0.0,51,0.00,,SKC,0.00,VWS V14.01,2013-03-06 12:14:00,
2013-03-06 06:19:00,34.6,18.3,30.38,North,355,0.0,0.0,51,0.00,,SKC,0.00,VWS V14.01,2013-03-06 12:19:00,
2013-03-06 06:20:00,38.2,20.2,30.40,North,355,0.0,4.0,48,0.00,,SKC,0.00,VWS V14.01,2013-03-06 12:20:00,
2013-03-06 06:24:00,34.7,18.9,30.39,North,355,0.0,0.0,52,0.00,,SKC,0.00,VWS V14.01,2013-03-06 12:24:00,
2013-03-06 06:29:00,35.0,19.2,30.38,North,355,0.0,0.0,52,0.00,,SKC,0.00,VWS V14.01,2013-03-06 12:29:00,
2013-03-06 06:30:00,39.0,20.5,30.40,North,355,0.0,1.0,47,0.00,,SKC,0.00,VWS V14.01,2013-03-06 12:30:00,
2013-03-06 06:34:00,35.4,19.1,30.39,North,355,0.0,0.0,51,0.00,,SKC,0.00,VWS V14.01,2013-03-06 12:34:00,
2013-03-06 06:39:00,35.9,19.1,30.39,North,355,0.0,0.0,50,0.00,,SKC,0.00,VWS V14.01,2013-03-06 12:39:00,
2013-03-06 06:40:00,40.0,20.9,30.40,North,351,0.0,3.0,46,0.00,,SKC,0.00,VWS V14.01,2013-03-06 12:40:00,
2013-03-06 06:44:00,36.4,19.5,30.39,North,355,0.0,0.0,50,0.00,,SKC,0.00,VWS V14.01,2013-03-06 12:44:00,
2013-03-06 06:49:00,36.7,19.4,30.38,North,355,0.0,0.0,49,0.00,,SKC,0.00,VWS V14.01,2013-03-06 12:49:00,
2013-03-06 06:50:00,41.4,21.7,30.41,North,355,2.0,7.0,45,0.00,,SKC,0.00,VWS V14.01,2013-03-06 12:50:00,
2013-03-06 06:55:00,37.0,19.6,30.39,North,355,0.0,0.0,49,0.00,,SKC,0.00,VWS V14.01,2013-03-06 12:55:00,
2013-03-06 07:00:00,37.2,19.8,30.39,North,355,0.0,0.0,49,0.00,,SKC,0.00,VWS V14.01,2013-03-06 13:00:00,
2013-03-06 07:04:00,37.5,20.1,30.39,North,355,0.0,3.0,49,0.00,,SKC,0.00,VWS V14.01,2013-03-06 13:04:00,
2013-03-06 07:09:00,37.8,20.4,30.39,North,355,0.0,0.0,49,0.00,,SKC,0.00,VWS V14.01,2013-03-06 13:09:00,
2013-03-06 07:10:00,44.9,22.1,30.42,NE,34,0.0,9.0,40,0.00,,SKC,0.00,VWS V14.01,2013-03-06 13:10:00,
2013-03-06 07:14:00,38.1,20.2,30.40,North,355,0.0,3.0,48,0.00,,SKC,0.00,VWS V14.01,2013-03-06 13:14:00,
2013-03-06 07:19:00,38.4,20.4,30.40,North,355,0.0,1.0,48,0.00,,SKC,0.00,VWS V14.01,2013-03-06 13:19:00,
2013-03-06 07:20:00,45.6,22.1,30.42,NNE,20,9.0,13.0,39,0.00,,SKC,0.00,VWS V14.01,2013-03-06 13:20:00,
2013-03-06 07:24:00,38.8,20.3,30.40,North,355,0.0,1.0,47,0.00,,SKC,0.00,VWS V14.01,2013-03-06 13:24:00,
2013-03-06 07:29:00,39.2,20.7,30.40,North,355,0.0,0.0,47,0.00,,SKC,0.00,VWS V14.01,2013-03-06 13:29:00,
2013-03-06 07:30:00,45.8,21.6,30.43,NNE,29,4.0,13.0,38,0.00,,SKC,0.00,VWS V14.01,2013-03-06 13:30:00,
2013-03-06 07:34:00,39.8,20.7,30.40,North,355,0.0,3.0,46,0.00,,SKC,0.00,VWS V14.01,2013-03-06 13:34:00,
2013-03-06 07:39:00,40.4,21.3,30.40,North,355,0.0,7.0,46,0.00,,SKC,0.00,VWS V14.01,2013-03-06 13:39:00,
2013-03-06 07:40:00,45.7,22.2,30.43,NNE,32,4.0,11.0,39,0.00,,SKC,0.00,VWS V14.01,2013-03-06 13:40:00,
2013-03-06 07:44:00,41.1,21.4,30.41,North,355,0.0,7.0,45,0.00,,SKC,0.00,VWS V14.01,2013-03-06 13:44:00,
2013-03-06 07:49:00,41.9,21.6,30.41,North,355,0.0,6.0,44,0.00,,SKC,0.00,VWS V14.01,2013-03-06 13:49:00,
2013-03-06 07:50:00,45.8,22.3,30.43,NE,44,8.0,9.0,39,0.00,,SKC,0.00,VWS V14.01,2013-03-06 13:50:00,
2013-03-06 07:54:00,42.7,21.2,30.42,North,360,1.0,10.0,42,0.00,,SKC,0.00,VWS V14.01,2013-03-06 13:54:00,
2013-03-06 07:59:00,43.6,22.0,30.43,North,9,0.0,9.0,42,0.00,,SKC,0.00,VWS V14.01,2013-03-06 13:59:00,
2013-03-06 08:00:00,46.1,22.5,30.43,NE,44,0.0,10.0,39,0.00,,SKC,0.00,VWS V14.01,2013-03-06 14:00:00,
2013-03-06 08:04:00,44.6,22.4,30.42,NE,36,0.0,9.0,41,0.00,,SKC,0.00,VWS V14.01,2013-03-06 14:04:00,
2013-03-06 08:09:00,45.4,21.9,30.43,NE,44,6.0,13.0,39,0.00,,SKC,0.00,VWS V14.01,2013-03-06 14:09:00,
2013-03-06 08:10:00,46.5,22.3,30.43,NE,45,4.0,12.0,38,0.00,,SKC,0.00,VWS V14.01,2013-03-06 14:10:00,
2013-03-06 08:14:00,45.6,22.1,30.43,NE,45,4.0,13.0,39,0.00,,SKC,0.00,VWS V14.01,2013-03-06 14:14:00,
2013-03-06 08:19:00,45.7,22.2,30.42,NE,43,0.0,13.0,39,0.00,,SKC,0.00,VWS V14.01,2013-03-06 14:19:00,
2013-03-06 08:20:00,46.8,22.5,30.43,NE,49,0.0,10.0,38,0.00,,SKC,0.00,VWS V14.01,2013-03-06 14:20:00,
2013-03-06 08:24:00,45.8,22.3,30.42,NE,39,0.0,13.0,39,0.00,,SKC,0.00,VWS V14.01,2013-03-06 14:24:00,
2013-03-06 08:29:00,45.9,22.4,30.43,NNE,17,7.0,9.0,39,0.00,,SKC,0.00,VWS V14.01,2013-03-06 14:29:00,
2013-03-06 08:30:00,47.4,23.1,30.43,NNE,32,0.0,9.0,38,0.00,,SKC,0.00,VWS V14.01,2013-03-06 14:30:00,
2013-03-06 08:34:00,45.8,22.3,30.43,NNE,24,2.0,11.0,39,0.00,,SKC,0.00,VWS V14.01,2013-03-06 14:34:00,
2013-03-06 08:39:00,45.7,22.2,30.43,NE,40,2.0,9.0,39,0.00,,SKC,0.00,VWS V14.01,2013-03-06 14:39:00,
2013-03-06 08:40:00,47.8,22.8,30.44,NE,38,0.0,8.0,37,0.00,,SKC,0.00,VWS V14.01,2013-03-06 14:40:00,
2013-03-06 08:44:00,45.8,22.3,30.43,NE,40,1.0,9.0,39,0.00,,SKC,0.00,VWS V14.01,2013-03-06 14:44:00,
2013-03-06 08:49:00,45.9,21.7,30.43,NE,42,3.0,9.0,38,0.00,,SKC,0.00,VWS V14.01,2013-03-06 14:49:00,
2013-03-06 08:50:00,47.9,22.2,30.44,NE,34,0.0,12.0,36,0.00,,SKC,0.00,VWS V14.01,2013-03-06 14:50:00,
2013-03-06 08:54:00,46.0,22.5,30.43,NE,44,0.0,10.0,39,0.00,,SKC,0.00,VWS V14.01,2013-03-06 14:54:00,
2013-03-06 08:59:00,46.3,22.7,30.43,NE,46,2.0,6.0,39,0.00,,SKC,0.00,VWS V14.01,2013-03-06 14:59:00,
2013-03-06 09:00:00,49.1,24.0,30.44,NE,55,0.0,10.0,37,0.00,,SKC,0.00,VWS V14.01,2013-03-06 15:00:00,
2013-03-06 09:04:00,46.5,22.3,30.43,NNE,32,3.0,10.0,38,0.00,,SKC,0.00,VWS V14.01,2013-03-06 15:04:00,
2013-03-06 09:09:00,46.6,22.4,30.43,NE,44,4.0,9.0,38,0.00,,SKC,0.00,VWS V14.01,2013-03-06 15:09:00,
2013-03-06 09:10:00,51.5,24.8,30.44,NE,43,0.0,10.0,35,0.00,,SKC,0.00,VWS V14.01,2013-03-06 15:10:00,
2013-03-06 09:14:00,46.7,22.5,30.43,NE,43,1.0,10.0,38,0.00,,SKC,0.00,VWS V14.01,2013-03-06 15:14:00,
2013-03-06 09:19:00,46.9,22.6,30.43,NE,44,0.0,7.0,38,0.00,,SKC,0.00,VWS V14.01,2013-03-06 15:19:00,
2013-03-06 09:20:00,52.9,23.9,30.44,NE,44,4.0,11.0,32,0.00,,SKC,0.00,VWS V14.01,2013-03-06 15:20:00,
2013-03-06 09:24:00,47.3,23.0,30.43,North,10,3.0,9.0,38,0.00,,SKC,0.00,VWS V14.01,2013-03-06 15:24:00,
2013-03-06 09:29:00,47.6,23.3,30.43,NE,38,0.0,7.0,38,0.00,,SKC,0.00,VWS V14.01,2013-03-06 15:29:00,
2013-03-06 09:30:00,54.0,24.1,30.43,NNE,32,5.0,10.0,31,0.00,,SKC,0.00,VWS V14.01,2013-03-06 15:30:00,
2013-03-06 09:34:00,47.8,22.8,30.44,NE,38,0.0,8.0,37,0.00,,SKC,0.00,VWS V14.01,2013-03-06 15:34:00,
2013-03-06 09:39:00,47.9,22.2,30.44,NNE,28,0.0,11.0,36,0.00,,SKC,0.00,VWS V14.01,2013-03-06 15:39:00,
2013-03-06 09:40:00,55.4,24.5,30.43,NNE,33,0.0,11.0,30,0.00,,SKC,0.00,VWS V14.01,2013-03-06 15:40:00,
2013-03-06 09:44:00,47.9,22.2,30.44,NE,42,0.0,12.0,36,0.00,,SKC,0.00,VWS V14.01,2013-03-06 15:44:00,
2013-03-06 09:49:00,48.1,23.1,30.44,NNE,32,0.0,8.0,37,0.00,,SKC,0.00,VWS V14.01,2013-03-06 15:49:00,
2013-03-06 09:50:00,56.3,23.6,30.43,NE,45,5.0,11.0,28,0.00,,SKC,0.00,VWS V14.01,2013-03-06 15:50:00,
2013-03-06 09:54:00,48.7,23.6,30.44,NE,55,1.0,9.0,37,0.00,,SKC,0.00,VWS V14.01,2013-03-06 15:54:00,
2013-03-06 09:59:00,49.9,24.0,30.44,NE,53,0.0,9.0,36,0.00,,SKC,0.00,VWS V14.01,2013-03-06 15:59:00,
2013-03-06 10:00:00,56.7,24.8,30.43,ENE,76,0.0,12.0,29,0.00,,SKC,0.00,VWS V14.01,2013-03-06 16:00:00,
2013-03-06 10:04:00,51.1,24.4,30.44,NE,43,0.0,10.0,35,0.00,,SKC,0.00,VWS V14.01,2013-03-06 16:04:00,
2013-03-06 10:09:00,52.0,24.5,30.44,NE,47,0.0,11.0,34,0.00,,SKC,0.00,VWS V14.01,2013-03-06 16:09:00,
2013-03-06 10:10:00,57.6,23.9,30.43,NE,49,0.0,12.0,27,0.00,,SKC,0.00,VWS V14.01,2013-03-06 16:10:00,
2013-03-06 10:14:00,52.6,24.3,30.44,NNE,30,8.0,11.0,33,0.00,,SKC,0.00,VWS V14.01,2013-03-06 16:14:00,
2013-03-06 10:19:00,53.2,24.1,30.44,NE,42,0.0,10.0,32,0.00,,SKC,0.00,VWS V14.01,2013-03-06 16:19:00,
2013-03-06 10:20:00,57.0,23.4,30.43,ENE,67,0.0,9.0,27,0.00,,SKC,0.00,VWS V14.01,2013-03-06 16:20:00,
2013-03-06 10:24:00,53.7,25.3,30.43,NE,36,0.0,10.0,33,0.00,,SKC,0.00,VWS V14.01,2013-03-06 16:24:00,
2013-03-06 10:29:00,54.4,24.4,30.44,NNE,29,0.0,6.0,31,0.00,,SKC,0.00,VWS V14.01,2013-03-06 16:29:00,
2013-03-06 10:30:00,56.7,24.0,30.42,NE,46,5.0,8.0,28,0.00,,SKC,0.00,VWS V14.01,2013-03-06 16:30:00,
2013-03-06 10:34:00,55.1,24.2,30.43,NNE,31,3.0,11.0,30,0.00,,SKC,0.00,VWS V14.01,2013-03-06 16:34:00,
2013-03-06 10:39:00,55.9,24.1,30.43,NNE,20,0.0,10.0,29,0.00,,SKC,0.00,VWS V14.01,2013-03-06 16:39:00,
2013-03-06 10:40:00,57.5,23.8,30.42,NE,54,0.0,7.0,27,0.00,,SKC,0.00,VWS V14.01,2013-03-06 16:40:00,
2013-03-06 10:44:00,56.2,23.5,30.43,NE,49,0.0,11.0,28,0.00,,SKC,0.00,VWS V14.01,2013-03-06 16:44:00,
2013-03-06 10:49:00,56.3,23.6,30.43,NE,39,3.0,12.0,28,0.00,,SKC,0.00,VWS V14.01,2013-03-06 16:49:00,
2013-03-06 10:50:00,58.6,23.8,30.42,NE,46,0.0,8.0,26,0.00,,SKC,0.00,VWS V14.01,2013-03-06 16:50:00,
2013-03-06 10:54:00,56.5,23.8,30.43,NE,44,2.0,12.0,28,0.00,,SKC,0.00,VWS V14.01,2013-03-06 16:54:00,
2013-03-06 10:59:00,57.0,24.2,30.43,ENE,59,4.0,8.0,28,0.00,,SKC,0.00,VWS V14.01,2013-03-06 16:59:00,
2013-03-06 11:00:00,59.5,23.7,30.41,NE,48,0.0,9.0,25,0.00,,SKC,0.00,VWS V14.01,2013-03-06 17:00:00,
2013-03-06 11:04:00,57.4,24.6,30.43,NNE,13,7.0,12.0,28,0.00,,SKC,0.00,VWS V14.01,2013-03-06 17:04:00,
2013-03-06 11:09:00,57.6,23.9,30.43,NNE,22,4.0,8.0,27,0.00,,SKC,0.00,VWS V14.01,2013-03-06 17:09:00,
2013-03-06 11:10:00,60.7,25.6,30.39,NE,46,3.0,9.0,26,0.00,,SKC,0.00,VWS V14.01,2013-03-06 17:10:00,
2013-03-06 11:14:00,57.3,23.6,30.43,ENE,72,0.0,9.0,27,0.00,,SKC,0.00,VWS V14.01,2013-03-06 17:14:00,
2013-03-06 11:19:00,56.7,23.1,30.43,NE,55,0.0,8.0,27,0.00,,SKC,0.00,VWS V14.01,2013-03-06 17:19:00,
2013-03-06 11:20:00,61.3,25.2,30.38,NE,40,0.0,10.0,25,0.00,,SKC,0.00,VWS V14.01,2013-03-06 17:20:00,
2013-03-06 11:24:00,56.5,23.8,30.42,NE,53,0.0,8.0,28,0.00,,SKC,0.00,VWS V14.01,2013-03-06 17:24:00,
2013-03-06 11:29:00,57.0,25.1,30.42,ENE,63,5.0,5.0,29,0.00,,SKC,0.00,VWS V14.01,2013-03-06 17:29:00,
2013-03-06 11:30:00,62.1,24.9,30.38,NNE,26,4.0,8.0,24,0.00,,SKC,0.00,VWS V14.01,2013-03-06 17:30:00,
2013-03-06 11:34:00,57.4,23.7,30.42,NE,55,5.0,7.0,27,0.00,,SKC,0.00,VWS V14.01,2013-03-06 17:34:00,
2013-03-06 11:39:00,57.7,24.0,30.42,NE,51,0.0,7.0,27,0.00,,SKC,0.00,VWS V14.01,2013-03-06 17:39:00,
2013-03-06 11:40:00,63.1,23.7,30.37,NNE,12,4.0,9.0,22,0.00,,SKC,0.00,VWS V14.01,2013-03-06 17:40:00,
2013-03-06 11:44:00,58.4,23.7,30.42,NE,46,0.0,8.0,26,0.00,,SKC,0.00,VWS V14.01,2013-03-06 17:44:00,
2013-03-06 11:49:00,58.9,25.9,30.41,NE,50,7.0,7.0,28,0.00,,SKC,0.00,VWS V14.01,2013-03-06 17:49:00,
2013-03-06 11:50:00,63.4,23.9,30.36,ENE,59,2.0,9.0,22,0.00,,SKC,0.00,VWS V14.01,2013-03-06 17:50:00,
2013-03-06 11:54:00,59.3,23.5,30.41,NE,46,5.0,9.0,25,0.00,,SKC,0.00,VWS V14.01,2013-03-06 17:54:00,
2013-03-06 11:59:00,59.8,24.9,30.40,NE,48,0.0,6.0,26,0.00,,SKC,0.00,VWS V14.01,2013-03-06 17:59:00,
2013-03-06 12:00:00,63.8,25.3,30.35,NE,51,0.0,8.0,23,0.00,,SKC,0.00,VWS V14.01,2013-03-06 18:00:00,
2013-03-06 12:04:00,60.5,24.5,30.40,NE,47,0.0,9.0,25,0.00,,SKC,0.00,VWS V14.01,2013-03-06 18:04:00,
2013-03-06 12:09:00,61.0,21.9,30.39,NE,39,8.0,10.0,22,0.00,,SKC,0.00,VWS V14.01,2013-03-06 18:09:00,
2013-03-06 12:10:00,64.2,23.5,30.34,East,85,0.0,9.0,21,0.00,,SKC,0.00,VWS V14.01,2013-03-06 18:10:00,
2013-03-06 12:14:00,61.3,24.2,30.39,NE,40,0.0,10.0,24,0.00,,SKC,0.00,VWS V14.01,2013-03-06 18:14:00,
2013-03-06 12:19:00,61.4,24.3,30.39,NE,38,3.0,5.0,24,0.00,,SKC,0.00,VWS V14.01,2013-03-06 18:19:00,
2013-03-06 12:20:00,64.0,24.4,30.33,East,95,0.0,7.0,22,0.00,,SKC,0.00,VWS V14.01,2013-03-06 18:20:00,
2013-03-06 12:24:00,61.8,24.6,30.38,NNE,26,0.0,8.0,24,0.00,,SKC,0.00,VWS V14.01,2013-03-06 18:24:00,
2013-03-06 12:29:00,62.4,25.2,30.38,NE,44,2.0,8.0,24,0.00,,SKC,0.00,VWS V14.01,2013-03-06 18:29:00,
2013-03-06 12:30:00,64.5,24.8,30.33,East,90,0.0,6.0,22,0.00,,SKC,0.00,VWS V14.01,2013-03-06 18:30:00,
2013-03-06 12:34:00,63.0,25.7,30.37,NE,44,3.0,9.0,24,0.00,,SKC,0.00,VWS V14.01,2013-03-06 18:34:00,
2013-03-06 12:39:00,63.2,23.8,30.36,NNE,17,0.0,7.0,22,0.00,,SKC,0.00,VWS V14.01,2013-03-06 18:39:00,
2013-03-06 12:40:00,65.1,24.2,30.32,ENE,67,0.0,9.0,21,0.00,,SKC,0.00,VWS V14.01,2013-03-06 18:40:00,
2013-03-06 12:44:00,63.4,23.9,30.36,NE,56,0.0,9.0,22,0.00,,SKC,0.00,VWS V14.01,2013-03-06 18:44:00,
2013-03-06 12:49:00,63.2,24.8,30.36,NE,50,4.0,8.0,23,0.00,,SKC,0.00,VWS V14.01,2013-03-06 18:49:00,
2013-03-06 12:50:00,64.9,24.1,30.32,ENE,67,0.0,1.0,21,0.00,,SKC,0.00,VWS V14.01,2013-03-06 18:50:00,
2013-03-06 12:54:00,63.6,25.1,30.36,NE,51,3.0,8.0,23,0.00,,SKC,0.00,VWS V14.01,2013-03-06 18:54:00,
2013-03-06 12:59:00,64.0,25.5,30.35,NE,54,2.0,5.0,23,0.00,,SKC,0.00,VWS V14.01,2013-03-06 18:59:00,
2013-03-06 13:00:00,65.2,23.1,30.30,ENE,74,0.0,5.0,20,0.00,,SKC,0.00,VWS V14.01,2013-03-06 19:00:00,
2013-03-06 13:04:00,64.3,23.6,30.34,ENE,74,0.0,8.0,21,0.00,,SKC,0.00,VWS V14.01,2013-03-06 19:04:00,
2013-03-06 13:09:00,64.0,24.4,30.33,East,92,0.0,7.0,22,0.00,,SKC,0.00,VWS V14.01,2013-03-06 19:09:00,
2013-03-06 13:10:00,65.7,24.7,30.30,East,80,0.0,6.0,21,0.00,,SKC,0.00,VWS V14.01,2013-03-06 19:10:00,
2013-03-06 13:14:00,63.9,23.2,30.33,East,95,0.0,7.0,21,0.00,,SKC,0.00,VWS V14.01,2013-03-06 19:14:00,
2013-03-06 13:19:00,64.1,24.5,30.33,East,96,0.0,3.0,22,0.00,,SKC,0.00,VWS V14.01,2013-03-06 19:19:00,
2013-03-06 13:20:00,66.2,21.5,30.29,ENE,78,0.0,7.0,18,0.00,,SKC,0.00,VWS V14.01,2013-03-06 19:20:00,
2013-03-06 13:24:00,64.4,24.8,30.33,East,90,1.0,6.0,22,0.00,,SKC,0.00,VWS V14.01,2013-03-06 19:24:00,
2013-03-06 13:29:00,64.7,23.9,30.32,ENE,70,3.0,9.0,21,0.00,,SKC,0.00,VWS V14.01,2013-03-06 19:29:00,
2013-03-06 13:30:00,66.7,21.9,30.28,ENE,78,0.0,2.0,18,0.00,,SKC,0.00,VWS V14.01,2013-03-06 19:30:00,
2013-03-06 13:34:00,65.0,24.1,30.32,ENE,68,0.0,9.0,21,0.00,,SKC,0.00,VWS V14.01,2013-03-06 19:34:00,
2013-03-06 13:39:00,65.1,23.1,30.32,ENE,67,0.0,1.0,20,0.00,,SKC,0.00,VWS V14.01,2013-03-06 19:39:00,
2013-03-06 13:40:00,66.4,18.9,30.27,East,85,0.0,7.0,16,0.00,,SKC,0.00,VWS V14.01,2013-03-06 19:40:00,
2013-03-06 13:44:00,65.0,24.1,30.32,ENE,67,0.0,1.0,21,0.00,,SKC,0.00,VWS V14.01,2013-03-06 19:44:00,
2013-03-06 13:49:00,65.0,24.1,30.31,ENE,70,0.0,5.0,21,0.00,,SKC,0.00,VWS V14.01,2013-03-06 19:49:00,
2013-03-06 13:50:00,66.0,20.0,30.26,East,85,0.0,1.0,17,0.00,,SKC,0.00,VWS V14.01,2013-03-06 19:50:00,
2013-03-06 13:54:00,65.1,24.2,30.31,ENE,71,0.0,5.0,21,0.00,,SKC,0.00,VWS V14.01,2013-03-06 19:54:00,
2013-03-06 13:59:00,65.2,23.1,30.30,ENE,78,0.0,4.0,20,0.00,,SKC,0.00,VWS V14.01,2013-03-06 19:59:00,
2013-03-06 14:00:00,65.5,18.1,30.26,East,84,0.0,6.0,16,0.00,,SKC,0.00,VWS V14.01,2013-03-06 20:00:00,
2013-03-06 14:04:00,65.5,24.6,30.30,East,80,0.0,6.0,21,0.00,,SKC,0.00,VWS V14.01,2013-03-06 20:04:00,
2013-03-06 14:09:00,65.9,22.5,30.29,East,82,3.0,6.0,19,0.00,,SKC,0.00,VWS V14.01,2013-03-06 20:09:00,
2013-03-06 14:10:00,64.7,20.2,30.26,East,89,0.0,9.0,18,0.00,,SKC,0.00,VWS V14.01,2013-03-06 20:10:00,
2013-03-06 14:14:00,66.1,22.7,30.29,ENE,78,0.0,7.0,19,0.00,,SKC,0.00,VWS V14.01,2013-03-06 20:14:00,
2013-03-06 14:19:00,66.5,23.0,30.29,ENE,78,0.0,2.0,19,0.00,,SKC,0.00,VWS V14.01,2013-03-06 20:19:00,
2013-03-06 14:20:00,64.1,18.4,30.26,East,92,0.0,8.0,17,0.00,,SKC,0.00,VWS V14.01,2013-03-06 20:20:00,
2013-03-06 14:24:00,66.7,20.5,30.28,ENE,78,0.0,2.0,17,0.00,,SKC,0.00,VWS V14.01,2013-03-06 20:24:00,
2013-03-06 14:29:00,66.8,22.0,30.28,ENE,78,0.0,6.0,18,0.00,,SKC,0.00,VWS V14.01,2013-03-06 20:29:00,
2013-03-06 14:30:00,63.8,16.8,30.25,East,93,0.0,6.0,16,0.00,,SKC,0.00,VWS V14.01,2013-03-06 20:30:00,
2013-03-06 14:34:00,66.6,20.5,30.27,East,86,0.0,7.0,17,0.00,,SKC,0.00,VWS V14.01,2013-03-06 20:34:00,
2013-03-06 14:39:00,66.2,17.2,30.27,East,85,0.0,1.0,15,0.00,,SKC,0.00,VWS V14.01,2013-03-06 20:39:00,
2013-03-06 14:40:00,63.3,17.8,30.25,East,93,0.0,0.0,17,0.00,,SKC,0.00,VWS V14.01,2013-03-06 20:40:00,
2013-03-06 14:44:00,66.0,20.0,30.26,East,85,0.0,1.0,17,0.00,,SKC,0.00,VWS V14.01,2013-03-06 20:44:00,
2013-03-06 14:49:00,66.0,20.0,30.27,East,85,0.0,0.0,17,0.00,,SKC,0.00,VWS V14.01,2013-03-06 20:49:00,
2013-03-06 14:50:00,63.1,17.6,30.26,East,93,0.0,5.0,17,0.00,,SKC,0.00,VWS V14.01,2013-03-06 20:50:00,
2013-03-06 14:54:00,65.8,18.4,30.26,East,85,0.0,5.0,16,0.00,,SKC,0.00,VWS V14.01,2013-03-06 20:54:00,
2013-03-06 14:59:00,65.3,18.0,30.26,East,89,7.0,9.0,16,0.00,,SKC,0.00,VWS V14.01,2013-03-06 20:59:00,
2013-03-06 15:00:00,63.0,16.1,30.25,East,93,0.0,6.0,16,0.00,,SKC,0.00,VWS V14.01,2013-03-06 21:00:00,
2013-03-06 15:04:00,64.9,20.4,30.26,East,89,0.0,9.0,18,0.00,,SKC,0.00,VWS V14.01,2013-03-06 21:04:00,
2013-03-06 15:09:00,64.5,18.8,30.26,East,92,6.0,8.0,17,0.00,,SKC,0.00,VWS V14.01,2013-03-06 21:09:00,
2013-03-06 15:10:00,62.8,16.0,30.24,East,93,2.0,5.0,16,0.00,,SKC,0.00,VWS V14.01,2013-03-06 21:10:00,
2013-03-06 15:14:00,64.2,18.5,30.26,East,93,0.0,8.0,17,0.00,,SKC,0.00,VWS V14.01,2013-03-06 21:14:00,
2013-03-06 15:19:00,64.0,18.3,30.25,East,93,0.0,6.0,17,0.00,,SKC,0.00,VWS V14.01,2013-03-06 21:19:00,
2013-03-06 15:20:00,62.7,19.9,30.23,East,93,0.0,5.0,19,0.00,,SKC,0.00,VWS V14.01,2013-03-06 21:20:00,
2013-03-06 15:24:00,63.8,18.2,30.25,East,93,0.0,6.0,17,0.00,,SKC,0.00,VWS V14.01,2013-03-06 21:24:00,
2013-03-06 15:29:00,63.7,16.7,30.25,East,93,0.0,0.0,16,0.00,,SKC,0.00,VWS V14.01,2013-03-06 21:29:00,
2013-03-06 15:30:00,62.6,19.8,30.24,East,93,0.0,0.0,19,0.00,,SKC,0.00,VWS V14.01,2013-03-06 21:30:00,
2013-03-06 15:34:00,63.4,16.5,30.25,East,93,0.0,0.0,16,0.00,,SKC,0.00,VWS V14.01,2013-03-06 21:34:00,
2013-03-06 15:39:00,63.3,19.1,30.26,East,93,0.0,0.0,18,0.00,,SKC,0.00,VWS V14.01,2013-03-06 21:39:00,
2013-03-06 15:40:00,62.6,21.0,30.25,East,93,0.0,0.0,20,0.00,,SKC,0.00,VWS V14.01,2013-03-06 21:40:00,
2013-03-06 15:44:00,63.2,17.7,30.26,East,93,0.0,5.0,17,0.00,,SKC,0.00,VWS V14.01,2013-03-06 21:44:00,
2013-03-06 15:49:00,63.1,17.6,30.25,East,93,0.0,1.0,17,0.00,,SKC,0.00,VWS V14.01,2013-03-06 21:49:00,
2013-03-06 15:50:00,62.7,21.1,30.24,East,93,0.0,0.0,20,0.00,,SKC,0.00,VWS V14.01,2013-03-06 21:50:00,
2013-03-06 15:54:00,63.0,16.1,30.24,East,93,0.0,1.0,16,0.00,,SKC,0.00,VWS V14.01,2013-03-06 21:54:00,
2013-03-06 15:59:00,62.9,16.0,30.25,East,93,0.0,0.0,16,0.00,,SKC,0.00,VWS V14.01,2013-03-06 21:59:00,
2013-03-06 16:00:00,62.8,21.2,30.23,East,93,0.0,0.0,20,0.00,,SKC,0.00,VWS V14.01,2013-03-06 22:00:00,
2013-03-06 16:04:00,62.8,17.4,30.25,East,93,0.0,1.0,17,0.00,,SKC,0.00,VWS V14.01,2013-03-06 22:04:00,
2013-03-06 16:09:00,62.7,17.3,30.24,East,93,0.0,5.0,17,0.00,,SKC,0.00,VWS V14.01,2013-03-06 22:09:00,
2013-03-06 16:10:00,62.6,21.0,30.24,East,93,0.0,0.0,20,0.00,,SKC,0.00,VWS V14.01,2013-03-06 22:10:00,
2013-03-06 16:14:00,62.6,18.5,30.23,East,93,0.0,5.0,18,0.00,,SKC,0.00,VWS V14.01,2013-03-06 22:14:00,
2013-03-06 16:19:00,62.6,19.8,30.24,East,93,0.0,0.0,19,0.00,,SKC,0.00,VWS V14.01,2013-03-06 22:19:00,
2013-03-06 16:20:00,62.6,22.1,30.24,East,93,0.0,0.0,21,0.00,,SKC,0.00,VWS V14.01,2013-03-06 22:20:00,
2013-03-06 16:24:00,62.6,19.8,30.24,East,93,0.0,0.0,19,0.00,,SKC,0.00,VWS V14.01,2013-03-06 22:24:00,
2013-03-06 16:29:00,62.6,19.8,30.24,East,93,0.0,0.0,19,0.00,,SKC,0.00,VWS V14.01,2013-03-06 22:29:00,
2013-03-06 16:30:00,62.4,23.1,30.23,East,93,0.0,0.0,22,0.00,,SKC,0.00,VWS V14.01,2013-03-06 22:30:00,
2013-03-06 16:34:00,62.6,21.0,30.25,East,93,0.0,0.0,20,0.00,,SKC,0.00,VWS V14.01,2013-03-06 22:34:00,
2013-03-06 16:39:00,62.7,21.1,30.25,East,93,0.0,0.0,20,0.00,,SKC,0.00,VWS V14.01,2013-03-06 22:39:00,
2013-03-06 16:40:00,62.2,20.7,30.23,East,93,0.0,3.0,20,0.00,,SKC,0.00,VWS V14.01,2013-03-06 22:40:00,
2013-03-06 16:44:00,62.7,21.1,30.24,East,93,0.0,0.0,20,0.00,,SKC,0.00,VWS V14.01,2013-03-06 22:44:00,
2013-03-06 16:49:00,62.8,22.3,30.24,East,93,0.0,0.0,21,0.00,,SKC,0.00,VWS V14.01,2013-03-06 22:49:00,
2013-03-06 16:50:00,62.0,19.3,30.23,East,95,2.0,9.0,19,0.00,,SKC,0.00,VWS V14.01,2013-03-06 22:50:00,
2013-03-06 16:54:00,62.9,22.4,30.24,East,93,0.0,0.0,21,0.00,,SKC,0.00,VWS V14.01,2013-03-06 22:54:00,
2013-03-06 16:59:00,62.8,21.2,30.24,East,93,0.0,0.0,20,0.00,,SKC,0.00,VWS V14.01,2013-03-06 22:59:00,
2013-03-06 17:00:00,61.8,19.1,30.24,East,96,0.0,5.0,19,0.00,,SKC,0.00,VWS V14.01,2013-03-06 23:00:00,
2013-03-06 17:04:00,62.7,21.1,30.23,East,93,0.0,0.0,20,0.00,,SKC,0.00,VWS V14.01,2013-03-06 23:04:00,
2013-03-06 17:09:00,62.6,22.1,30.24,East,93,0.0,0.0,21,0.00,,SKC,0.00,VWS V14.01,2013-03-06 23:09:00,
2013-03-06 17:10:00,61.4,18.8,30.24,East,96,0.0,0.0,19,0.00,,SKC,0.00,VWS V14.01,2013-03-06 23:10:00,
2013-03-06 17:14:00,62.6,22.1,30.24,East,93,0.0,0.0,21,0.00,,SKC,0.00,VWS V14.01,2013-03-06 23:14:00,
2013-03-06 17:19:00,62.5,22.1,30.24,East,93,0.0,0.0,21,0.00,,SKC,0.00,VWS V14.01,2013-03-06 23:19:00,
2013-03-06 17:20:00,61.0,18.5,30.24,East,96,0.0,2.0,19,0.00,,SKC,0.00,VWS V14.01,2013-03-06 23:20:00,
2013-03-06 17:24:00,62.5,22.1,30.24,East,93,0.0,0.0,21,0.00,,SKC,0.00,VWS V14.01,2013-03-06 23:24:00,
2013-03-06 17:29:00,62.4,23.1,30.23,East,93,0.0,0.0,22,0.00,,SKC,0.00,VWS V14.01,2013-03-06 23:29:00,
2013-03-06 17:30:00,60.5,19.2,30.24,East,96,0.0,0.0,20,0.00,,SKC,0.00,VWS V14.01,2013-03-06 23:30:00,
2013-03-06 17:34:00,62.3,20.8,30.23,East,93,0.0,3.0,20,0.00,,SKC,0.00,VWS V14.01,2013-03-06 23:34:00,
2013-03-06 17:39:00,62.2,20.7,30.24,East,93,0.0,1.0,20,0.00,,SKC,0.00,VWS V14.01,2013-03-06 23:39:00,
2013-03-06 17:40:00,59.8,19.8,30.24,East,96,0.0,0.0,21,0.00,,SKC,0.00,VWS V14.01,2013-03-06 23:40:00,
2013-03-06 17:44:00,62.1,20.6,30.23,East,93,0.0,6.0,20,0.00,,SKC,0.00,VWS V14.01,2013-03-06 23:44:00,
2013-03-06 17:49:00,62.0,19.3,30.23,East,95,5.0,5.0,19,0.00,,SKC,0.00,VWS V14.01,2013-03-06 23:49:00,
2013-03-06 17:50:00,59.1,19.2,30.24,East,96,0.0,0.0,21,0.00,,SKC,0.00,VWS V14.01,2013-03-06 23:50:00,
2013-03-06 17:54:00,61.8,19.1,30.24,East,96,3.0,5.0,19,0.00,,SKC,0.00,VWS V14.01,2013-03-06 23:54:00,
2013-03-06 17:59:00,61.7,19.0,30.24,East,96,0.0,0.0,19,0.00,,SKC,0.00,VWS V14.01,2013-03-06 23:59:00,
2013-03-06 18:00:00,58.3,19.6,30.24,East,96,0.0,0.0,22,0.00,,SKC,0.00,VWS V14.01,2013-03-07 00:00:00,
2013-03-06 18:04:00,61.5,18.9,30.24,East,96,0.0,0.0,19,0.00,,SKC,0.00,VWS V14.01,2013-03-07 00:04:00,
2013-03-06 18:09:00,61.4,18.8,30.24,East,96,0.0,2.0,19,0.00,,SKC,0.00,VWS V14.01,2013-03-07 00:09:00,
2013-03-06 18:10:00,57.6,19.1,30.23,East,96,0.0,0.0,22,0.00,,SKC,0.00,VWS V14.01,2013-03-07 00:10:00,
2013-03-06 18:14:00,61.2,18.6,30.24,East,96,0.0,2.0,19,0.00,,SKC,0.00,VWS V14.01,2013-03-07 00:14:00,
2013-03-06 18:19:00,60.9,18.4,30.24,East,96,0.0,0.0,19,0.00,,SKC,0.00,VWS V14.01,2013-03-07 00:19:00,
2013-03-06 18:20:00,57.0,19.6,30.23,East,96,0.0,0.0,23,0.00,,SKC,0.00,VWS V14.01,2013-03-07 00:20:00,
2013-03-06 18:24:00,60.7,19.4,30.24,East,96,0.0,0.0,20,0.00,,SKC,0.00,VWS V14.01,2013-03-07 00:24:00,
2013-03-06 18:29:00,60.3,19.1,30.24,East,96,0.0,0.0,20,0.00,,SKC,0.00,VWS V14.01,2013-03-07 00:29:00,
2013-03-06 18:30:00,56.5,21.1,30.22,East,96,0.0,0.0,25,0.00,,SKC,0.00,VWS V14.01,2013-03-07 00:30:00,
2013-03-06 18:34:00,60.0,18.8,30.24,East,96,0.0,0.0,20,0.00,,SKC,0.00,VWS V14.01,2013-03-07 00:34:00,
2013-03-06 18:39:00,59.6,19.6,30.24,East,96,0.0,0.0,21,0.00,,SKC,0.00,VWS V14.01,2013-03-07 00:39:00,
2013-03-06 18:40:00,56.0,20.7,30.23,East,96,0.0,0.0,25,0.00,,SKC,0.00,VWS V14.01,2013-03-07 00:40:00,
2013-03-06 18:44:00,59.3,20.5,30.24,East,96,0.0,0.0,22,0.00,,SKC,0.00,VWS V14.01,2013-03-07 00:44:00,
2013-03-06 18:49:00,58.9,20.1,30.24,East,96,0.0,0.0,22,0.00,,SKC,0.00,VWS V14.01,2013-03-07 00:49:00,
2013-03-06 18:50:00,55.6,21.3,30.22,East,96,0.0,0.0,26,0.00,,SKC,0.00,VWS V14.01,2013-03-07 00:50:00,
2013-03-06 18:54:00,58.5,19.8,30.24,East,96,0.0,0.0,22,0.00,,SKC,0.00,VWS V14.01,2013-03-07 00:54:00,
2013-03-06 18:59:00,58.2,19.6,30.23,East,96,0.0,0.0,22,0.00,,SKC,0.00,VWS V14.01,2013-03-07 00:59:00,
2013-03-06 19:00:00,55.2,20.9,30.23,East,96,0.0,0.0,26,0.00,,SKC,0.00,VWS V14.01,2013-03-07 01:00:00,
2013-03-06 19:04:00,57.8,19.2,30.23,East,96,0.0,0.0,22,0.00,,SKC,0.00,VWS V14.01,2013-03-07 01:04:00,
2013-03-06 19:09:00,57.5,20.0,30.23,East,96,0.0,0.0,23,0.00,,SKC,0.00,VWS V14.01,2013-03-07 01:09:00,
2013-03-06 19:10:00,55.2,20.9,30.23,East,96,0.0,0.0,26,0.00,,SKC,0.00,VWS V14.01,2013-03-07 01:10:00,
2013-03-06 19:14:00,57.2,19.8,30.23,East,96,0.0,0.0,23,0.00,,SKC,0.00,VWS V14.01,2013-03-07 01:14:00,
2013-03-06 19:19:00,56.9,20.5,30.22,East,96,0.0,0.0,24,0.00,,SKC,0.00,VWS V14.01,2013-03-07 01:19:00,
2013-03-06 19:20:00,55.1,22.6,30.24,East,96,0.0,0.0,28,0.00,,SKC,0.00,VWS V14.01,2013-03-07 01:20:00,
2013-03-06 19:24:00,56.6,20.2,30.22,East,96,0.0,0.0,24,0.00,,SKC,0.00,VWS V14.01,2013-03-07 01:24:00,
2013-03-06 19:29:00,56.3,21.0,30.22,East,96,0.0,0.0,25,0.00,,SKC,0.00,VWS V14.01,2013-03-07 01:29:00,
2013-03-06 19:30:00,54.5,22.1,30.24,East,96,0.0,0.0,28,0.00,,SKC,0.00,VWS V14.01,2013-03-07 01:30:00,
2013-03-06 19:34:00,56.1,20.8,30.22,East,96,0.0,0.0,25,0.00,,SKC,0.00,VWS V14.01,2013-03-07 01:34:00,
2013-03-06 19:39:00,55.9,20.6,30.22,East,96,0.0,0.0,25,0.00,,SKC,0.00,VWS V14.01,2013-03-07 01:39:00,
2013-03-06 19:40:00,53.8,21.5,30.23,East,96,0.0,0.0,28,0.00,,SKC,0.00,VWS V14.01,2013-03-07 01:40:00,
2013-03-06 19:44:00,55.7,21.4,30.22,East,96,0.0,0.0,26,0.00,,SKC,0.00,VWS V14.01,2013-03-07 01:44:00,
2013-03-06 19:49:00,55.5,21.2,30.23,East,96,0.0,0.0,26,0.00,,SKC,0.00,VWS V14.01,2013-03-07 01:49:00,
2013-03-06 19:50:00,53.2,21.8,30.24,East,96,0.0,0.0,29,0.00,,SKC,0.00,VWS V14.01,2013-03-07 01:50:00,
2013-03-06 19:54:00,55.3,21.0,30.23,East,96,0.0,0.0,26,0.00,,SKC,0.00,VWS V14.01,2013-03-07 01:54:00,
2013-03-06 19:59:00,55.1,20.9,30.23,East,96,0.0,0.0,26,0.00,,SKC,0.00,VWS V14.01,2013-03-07 01:59:00,
2013-03-06 20:00:00,52.4,21.9,30.24,East,96,0.0,0.0,30,0.00,,SKC,0.00,VWS V14.01,2013-03-07 02:00:00,
2013-03-06 20:04:00,55.1,20.9,30.23,East,96,0.0,0.0,26,0.00,,SKC,0.00,VWS V14.01,2013-03-07 02:04:00,
2013-03-06 20:09:00,55.2,21.8,30.24,East,96,0.0,0.0,27,0.00,,SKC,0.00,VWS V14.01,2013-03-07 02:09:00,
2013-03-06 20:10:00,51.7,21.3,30.24,East,96,0.0,0.0,30,0.00,,SKC,0.00,VWS V14.01,2013-03-07 02:10:00,
2013-03-06 20:14:00,55.2,22.7,30.25,East,96,0.0,0.0,28,0.00,,SKC,0.00,VWS V14.01,2013-03-07 02:14:00,
2013-03-06 20:19:00,54.9,22.4,30.24,East,96,0.0,0.0,28,0.00,,SKC,0.00,VWS V14.01,2013-03-07 02:19:00,
2013-03-06 20:20:00,51.6,21.2,30.23,East,96,0.0,0.0,30,0.00,,SKC,0.00,VWS V14.01,2013-03-07 02:20:00,
2013-03-06 20:24:00,54.7,22.3,30.24,East,96,0.0,0.0,28,0.00,,SKC,0.00,VWS V14.01,2013-03-07 02:24:00,
2013-03-06 20:29:00,54.3,21.9,30.24,East,96,0.0,0.0,28,0.00,,SKC,0.00,VWS V14.01,2013-03-07 02:29:00,
2013-03-06 20:30:00,51.6,22.0,30.24,East,96,0.0,0.0,31,0.00,,SKC,0.00,VWS V14.01,2013-03-07 02:30:00,
2013-03-06 20:34:00,54.0,21.6,30.23,East,96,0.0,0.0,28,0.00,,SKC,0.00,VWS V14.01,2013-03-07 02:34:00,
2013-03-06 20:39:00,53.7,22.2,30.23,East,96,0.0,0.0,29,0.00,,SKC,0.00,VWS V14.01,2013-03-07 02:39:00,
2013-03-06 20:40:00,51.1,23.0,30.25,East,96,0.0,0.0,33,0.00,,SKC,0.00,VWS V14.01,2013-03-07 02:40:00,
2013-03-06 20:44:00,53.4,22.0,30.24,East,96,0.0,0.0,29,0.00,,SKC,0.00,VWS V14.01,2013-03-07 02:44:00,
2013-03-06 20:49:00,53.0,21.6,30.24,East,96,0.0,0.0,29,0.00,,SKC,0.00,VWS V14.01,2013-03-07 02:49:00,
2013-03-06 20:50:00,50.4,23.1,30.25,East,96,0.0,0.0,34,0.00,,SKC,0.00,VWS V14.01,2013-03-07 02:50:00,
2013-03-06 20:54:00,52.6,22.1,30.24,East,96,0.0,0.0,30,0.00,,SKC,0.00,VWS V14.01,2013-03-07 02:54:00,
2013-03-06 20:59:00,52.2,21.7,30.24,East,96,0.0,0.0,30,0.00,,SKC,0.00,VWS V14.01,2013-03-07 02:59:00,
2013-03-06 21:00:00,49.5,23.0,30.25,East,96,0.0,0.0,35,0.00,,SKC,0.00,VWS V14.01,2013-03-07 03:00:00,
2013-03-06 21:04:00,51.9,21.5,30.24,East,96,0.0,0.0,30,0.00,,SKC,0.00,VWS V14.01,2013-03-07 03:04:00,
2013-03-06 21:09:00,51.6,22.0,30.23,East,96,0.0,0.0,31,0.00,,SKC,0.00,VWS V14.01,2013-03-07 03:09:00,
2013-03-06 21:10:00,48.6,22.9,30.24,East,96,0.0,0.0,36,0.00,,SKC,0.00,VWS V14.01,2013-03-07 03:10:00,
2013-03-06 21:14:00,51.6,21.2,30.23,East,96,0.0,0.0,30,0.00,,SKC,0.00,VWS V14.01,2013-03-07 03:14:00,
2013-03-06 21:19:00,51.7,21.3,30.23,East,96,0.0,0.0,30,0.00,,SKC,0.00,VWS V14.01,2013-03-07 03:19:00,
2013-03-06 21:20:00,47.7,23.4,30.24,East,96,0.0,0.0,38,0.00,,SKC,0.00,VWS V14.01,2013-03-07 03:20:00,
2013-03-06 21:24:00,51.7,21.3,30.23,East,96,0.0,0.0,30,0.00,,SKC,0.00,VWS V14.01,2013-03-07 03:24:00,
2013-03-06 21:29:00,51.5,21.1,30.24,East,96,0.0,0.0,30,0.00,,SKC,0.00,VWS V14.01,2013-03-07 03:29:00,
2013-03-06 21:30:00,46.8,23.2,30.24,East,96,0.0,0.0,39,0.00,,SKC,0.00,VWS V14.01,2013-03-07 03:30:00,
2013-03-06 21:34:00,51.2,23.1,30.24,East,96,0.0,0.0,33,0.00,,SKC,0.00,VWS V14.01,2013-03-07 03:34:00,
2013-03-06 21:39:00,51.0,22.9,30.24,East,96,0.0,0.0,33,0.00,,SKC,0.00,VWS V14.01,2013-03-07 03:39:00,
2013-03-06 21:40:00,46.0,23.0,30.24,East,96,0.0,0.0,40,0.00,,SKC,0.00,VWS V14.01,2013-03-07 03:40:00,
2013-03-06 21:44:00,50.6,23.3,30.25,East,96,0.0,0.0,34,0.00,,SKC,0.00,VWS V14.01,2013-03-07 03:44:00,
2013-03-06 21:49:00,50.2,22.9,30.25,East,96,0.0,0.0,34,0.00,,SKC,0.00,VWS V14.01,2013-03-07 03:49:00,
2013-03-06 21:50:00,45.7,23.9,30.24,East,96,0.0,0.0,42,0.00,,SKC,0.00,VWS V14.01,2013-03-07 03:50:00,
2013-03-06 21:54:00,49.8,23.3,30.25,East,96,0.0,0.0,35,0.00,,SKC,0.00,VWS V14.01,2013-03-07 03:54:00,
2013-03-06 21:59:00,49.3,22.8,30.25,East,96,0.0,0.0,35,0.00,,SKC,0.00,VWS V14.01,2013-03-07 03:59:00,
2013-03-06 22:00:00,45.4,24.2,30.24,East,96,0.0,0.0,43,0.00,,SKC,0.00,VWS V14.01,2013-03-07 04:00:00,
2013-03-06 22:04:00,48.9,23.1,30.25,East,96,0.0,0.0,36,0.00,,SKC,0.00,VWS V14.01,2013-03-07 04:04:00,
2013-03-06 22:09:00,48.3,23.3,30.25,East,96,0.0,0.0,37,0.00,,SKC,0.00,VWS V14.01,2013-03-07 04:09:00,
2013-03-06 22:10:00,46.1,23.7,30.25,East,96,0.0,0.0,41,0.00,,SKC,0.00,VWS V14.01,2013-03-07 04:10:00,
2013-03-06 22:14:00,47.9,23.5,30.24,East,96,0.0,0.0,38,0.00,,SKC,0.00,VWS V14.01,2013-03-07 04:14:00,
2013-03-06 22:19:00,47.4,23.1,30.24,East,96,0.0,0.0,38,0.00,,SKC,0.00,VWS V14.01,2013-03-07 04:19:00,
2013-03-06 22:20:00,47.2,23.5,30.24,East,96,0.0,0.0,39,0.00,,SKC,0.00,VWS V14.01,2013-03-07 04:20:00,
2013-03-06 22:24:00,47.0,23.3,30.24,East,96,0.0,0.0,39,0.00,,SKC,0.00,VWS V14.01,2013-03-07 04:24:00,
2013-03-06 22:29:00,46.6,23.0,30.24,East,96,0.0,0.0,39,0.00,,SKC,0.00,VWS V14.01,2013-03-07 04:29:00,
2013-03-06 22:30:00,47.5,23.2,30.24,East,96,0.0,0.0,38,0.00,,SKC,0.00,VWS V14.01,2013-03-07 04:30:00,
2013-03-06 22:34:00,46.2,22.6,30.23,East,96,0.0,0.0,39,0.00,,SKC,0.00,VWS V14.01,2013-03-07 04:34:00,
2013-03-06 22:39:00,46.0,23.6,30.23,East,96,0.0,0.0,41,0.00,,SKC,0.00,VWS V14.01,2013-03-07 04:39:00,
2013-03-06 22:40:00,47.4,23.7,30.23,East,96,0.0,0.0,39,0.00,,SKC,0.00,VWS V14.01,2013-03-07 04:40:00,
2013-03-06 22:44:00,45.8,24.0,30.24,East,96,0.0,0.0,42,0.00,,SKC,0.00,VWS V14.01,2013-03-07 04:44:00,
2013-03-06 22:49:00,45.7,23.9,30.24,East,96,0.0,0.0,42,0.00,,SKC,0.00,VWS V14.01,2013-03-07 04:49:00,
2013-03-06 22:50:00,47.4,24.3,30.23,East,96,0.0,0.0,40,0.00,,SKC,0.00,VWS V14.01,2013-03-07 04:50:00,
2013-03-06 22:54:00,45.5,23.8,30.24,East,96,0.0,0.0,42,0.00,,SKC,0.00,VWS V14.01,2013-03-07 04:54:00,
2013-03-06 22:59:00,45.3,23.6,30.24,East,96,0.0,0.0,42,0.00,,SKC,0.00,VWS V14.01,2013-03-07 04:59:00,
2013-03-06 23:00:00,45.3,23.6,30.24,East,96,0.0,0.0,42,0.00,,SKC,0.00,VWS V14.01,2013-03-07 05:00:00,
2013-03-06 23:05:00,45.8,22.9,30.25,East,96,0.0,0.0,40,0.00,,SKC,0.00,VWS V14.01,2013-03-07 05:05:00,
2013-03-06 23:10:00,46.5,23.5,30.24,East,96,0.0,0.0,40,0.00,,SKC,0.00,VWS V14.01,2013-03-07 05:10:00,
2013-03-06 23:15:00,47.0,23.3,30.24,East,96,0.0,0.0,39,0.00,,SKC,0.00,VWS V14.01,2013-03-07 05:15:00,
2013-03-06 23:20:00,47.4,23.7,30.24,East,96,0.0,0.0,39,0.00,,SKC,0.00,VWS V14.01,2013-03-07 05:20:00,
2013-03-06 23:25:00,47.5,23.2,30.24,East,96,0.0,0.0,38,0.00,,SKC,0.00,VWS V14.01,2013-03-07 05:25:00,
2013-03-06 23:30:00,47.5,23.2,30.24,East,96,0.0,0.0,38,0.00,,SKC,0.00,VWS V14.01,2013-03-07 05:30:00,
2013-03-06 23:35:00,47.4,23.1,30.23,East,96,0.0,0.0,38,0.00,,SKC,0.00,VWS V14.01,2013-03-07 05:35:00,
2013-03-06 23:40:00,47.4,23.7,30.23,East,96,0.0,0.0,39,0.00,,SKC,0.00,VWS V14.01,2013-03-07 05:40:00,
2013-03-06 23:45:00,47.4,24.3,30.23,East,96,0.0,0.0,40,0.00,,SKC,0.00,VWS V14.01,2013-03-07 05:45:00,
2013-03-06 23:50:00,47.5,24.4,30.23,East,96,0.0,0.0,40,0.00,,SKC,0.00,VWS V14.01,2013-03-07 05:50:00,
2013-03-06 23:55:00,47.5,25.0,30.23,East,96,0.0,0.0,41,0.00,,SKC,0.00,VWS V14.01,2013-03-07 05:55:00,